Portage Des Sioux, Missouri
Current Conditions -  °F | °C
As of 11:54 AM on Wednesday 28 Jan 2015 (Local Time) from KSET Reporting Station
Clear Clear  
Wind Chill: 33°   Ceiling: Unl
Heat Index: 42°   Visibility: 10mi
Dew Point: 31°   Wind: 20mph
Humidity: 65%   Direction: 150°SSE
Pressure: 30.14"   Gusts: NA
Location:  38.92°N, 90.34°W
Report Text: KSET 281754Z AUTO 15017KT 10SM CLR 06/M01 A3014 RMK AO2 SLP210 T00561006 10056 21017 58027
Loading
Personal Weather Stations






























Interactive Weather Map New forecast layout! Learn more

10-Day Weather Forecast

Advertisements
Track Severe Weather on mobile